Time;durP1;ratioP1;P1;durP2;ratioP2;P2;SDS_P1;SDS_P2;PMS_P1;PMS_P2;Temp;Humidity;BMP_temperature;BMP_pressure;BME280_temperature;BME280_humidity;BME280_pressure;Samples;Min_cycle;Max_cycle;Signal;HPM_P1;HPM_P2
2022/09/12 00:02:04;;;;;;;0.20;0.10;;;;;;;;;;5026047;28;20051;-87
2022/09/12 00:04:38;;;;;;;0.20;0.10;;;;;;;;;;5022663;28;20045;-87
2022/09/12 00:07:09;;;;;;;0.20;0.10;;;;;;;;;;5000985;28;20083;-86
2022/09/12 00:09:41;;;;;;;0.30;0.15;;;;;;;;;;5032944;28;20056;-87
2022/09/12 00:12:15;;;;;;;0.20;0.10;;;;;;;;;;5028322;28;20492;-87
2022/09/12 00:19:12;;;;;;;0.20;0.10;;;;;;;;;;5023746;27;4102765;-85
2022/09/12 00:21:46;;;;;;;0.20;0.10;;;;;;;;;;5121724;27;20385;-86
2022/09/12 00:27:15;;;;;;;0.20;0.10;;;;;;;;;;5081979;27;20042;-84
2022/09/12 00:29:57;;;;;;;0.20;0.10;;;;;;;;;;5118635;27;20107;-85
2022/09/12 00:32:23;;;;;;;0.20;0.10;;;;;;;;;;5089390;22;20870;-83
2022/09/12 00:34:53;;;;;;;0.20;0.10;;;;;;;;;;5054266;28;20039;-84
2022/09/12 00:37:19;;;;;;;0.20;0.10;;;;;;;;;;5072145;28;20115;-84
2022/09/12 00:39:45;;;;;;;0.20;0.10;;;;;;;;;;5056435;28;20059;-84
2022/09/12 00:42:11;;;;;;;0.20;0.10;;;;;;;;;;5069587;27;20282;-83
2022/09/12 00:44:47;;;;;;;0.20;0.10;;;;;;;;;;5076089;28;20501;-84
2022/09/12 00:47:18;;;;;;;0.20;0.10;;;;;;;;;;5092352;27;20639;-83
2022/09/12 00:50:00;;;;;;;;;;;;;;;;;;;;;
2022/09/12 00:52:43;;;;;;;0.20;0.10;;;;;;;;;;5092516;28;20047;-84
2022/09/12 00:55:15;;;;;;;0.20;0.10;;;;;;;;;;5075656;28;20036;-84
2022/09/12 00:58:04;;;;;;;0.20;0.10;;;;;;;;;;5092599;27;20043;-84
2022/09/12 01:00:38;;;;;;;0.20;0.10;;;;;;;;;;5090588;28;20072;-83
2022/09/12 01:03:09;;;;;;;0.40;0.10;;;;;;;;;;5058443;27;20067;-84
2022/09/12 01:05:43;;;;;;;0.20;0.10;;;;;;;;;;5095056;28;20126;-83
2022/09/12 01:08:22;;;;;;;0.20;0.10;;;;;;;;;;5094392;28;20035;-84
2022/09/12 01:10:51;;;;;;;0.20;0.00;;;;;;;;;;5095177;28;20046;-84
2022/09/12 01:13:18;;;;;;;0.20;0.10;;;;;;;;;;5079714;28;20035;-84
2022/09/12 01:15:44;;;;;;;0.20;0.10;;;;;;;;;;5096977;28;20131;-84
2022/09/12 01:18:13;;;;;;;0.20;0.10;;;;;;;;;;5077929;28;20043;-84
2022/09/12 01:20:42;;;;;;;0.20;0.10;;;;;;;;;;5093379;27;20717;-84
2022/09/12 01:23:38;;;;;;;0.20;0.10;;;;;;;;;;5085609;28;20393;-84
2022/09/12 01:26:26;;;;;;;0.20;0.10;;;;;;;;;;5093367;28;21314;-84
2022/09/12 01:29:07;;;;;;;0.20;0.10;;;;;;;;;;5092620;28;20481;-84
2022/09/12 01:31:40;;;;;;;0.20;0.10;;;;;;;;;;5065158;28;20563;-84
2022/09/12 01:34:18;;;;;;;0.20;0.10;;;;;;;;;;5061293;28;20158;-84
2022/09/12 01:37:08;;;;;;;0.20;0.10;;;;;;;;;;5079822;28;20060;-84
2022/09/12 01:39:50;;;;;;;0.20;0.10;;;;;;;;;;5044415;28;20086;-83
2022/09/12 01:42:34;;;;;;;0.20;0.10;;;;;;;;;;5063063;28;20416;-84
2022/09/12 01:45:19;;;;;;;0.20;0.10;;;;;;;;;;5079204;28;20042;-84
2022/09/12 01:47:49;;;;;;;0.20;0.10;;;;;;;;;;5059067;28;20052;-84
2022/09/12 01:50:17;;;;;;;0.20;0.10;;;;;;;;;;5060521;28;20051;-84
2022/09/12 01:52:52;;;;;;;0.20;0.10;;;;;;;;;;5079513;28;20039;-84
2022/09/12 01:55:22;;;;;;;0.20;0.10;;;;;;;;;;5079730;28;20059;-85
2022/09/12 01:57:51;;;;;;;0.20;0.10;;;;;;;;;;5058894;27;20612;-84
2022/09/12 02:00:18;;;;;;;0.20;0.10;;;;;;;;;;5079407;28;20048;-85
2022/09/12 02:02:47;;;;;;;0.20;0.10;;;;;;;;;;5060617;28;20061;-85
2022/09/12 02:05:45;;;;;;;0.20;0.10;;;;;;;;;;5071287;28;20051;-84
2022/09/12 02:08:32;;;;;;;0.20;0.10;;;;;;;;;;5003964;28;20047;-85
2022/09/12 02:11:06;;;;;;;0.20;0.20;;;;;;;;;;5077199;28;20031;-84
2022/09/12 02:13:38;;;;;;;0.20;0.10;;;;;;;;;;5071398;28;20062;-84
2022/09/12 02:16:15;;;;;;;0.20;0.10;;;;;;;;;;5060750;28;20110;-84
2022/09/12 02:18:47;;;;;;;0.20;0.10;;;;;;;;;;5072766;28;20031;-85
2022/09/12 02:21:13;;;;;;;0.20;0.20;;;;;;;;;;5064657;28;20460;-85
2022/09/12 02:23:43;;;;;;;0.20;0.10;;;;;;;;;;5042295;28;20032;-85
2022/09/12 02:26:15;;;;;;;0.20;0.10;;;;;;;;;;5064789;28;20042;-85
2022/09/12 02:28:42;;;;;;;0.20;0.03;;;;;;;;;;5083959;28;20070;-84
2022/09/12 02:31:23;;;;;;;0.20;0.17;;;;;;;;;;5058976;27;20197;-85
2022/09/12 02:34:02;;;;;;;0.20;0.10;;;;;;;;;;5060753;28;20062;-85
2022/09/12 02:36:32;;;;;;;0.20;0.10;;;;;;;;;;5057161;28;20036;-85
2022/09/12 02:39:04;;;;;;;0.35;0.35;;;;;;;;;;5076749;28;20073;-85
2022/09/12 02:41:38;;;;;;;0.20;0.10;;;;;;;;;;5071874;28;20093;-84
2022/09/12 02:44:09;;;;;;;0.20;0.10;;;;;;;;;;5055393;28;20043;-84
2022/09/12 02:46:40;;;;;;;0.20;0.10;;;;;;;;;;5056087;28;20047;-84
2022/09/12 02:49:09;;;;;;;0.20;0.10;;;;;;;;;;5074740;27;20059;-86
2022/09/12 02:51:37;;;;;;;0.20;0.20;;;;;;;;;;5059202;27;20324;-85
2022/09/12 02:54:06;;;;;;;0.20;0.10;;;;;;;;;;5059039;28;20040;-85
2022/09/12 02:56:41;;;;;;;0.40;0.20;;;;;;;;;;5089306;28;20123;-85
2022/09/12 02:59:08;;;;;;;0.20;0.10;;;;;;;;;;5064085;28;20089;-85
2022/09/12 03:01:48;;;;;;;0.20;0.10;;;;;;;;;;5061971;28;20044;-85
2022/09/12 03:04:14;;;;;;;0.52;0.10;;;;;;;;;;5057762;27;20040;-85
2022/09/12 03:06:59;;;;;;;0.20;0.10;;;;;;;;;;5064352;28;20444;-85
2022/09/12 03:09:33;;;;;;;0.20;0.10;;;;;;;;;;5081105;27;20583;-85
2022/09/12 03:12:24;;;;;;;0.20;0.10;;;;;;;;;;5063297;28;20096;-85
2022/09/12 03:15:02;;;;;;;0.20;0.10;;;;;;;;;;5042179;28;20517;-84
2022/09/12 03:17:37;;;;;;;0.20;0.10;;;;;;;;;;5022869;28;20040;-84
2022/09/12 03:20:21;;;;;;;0.20;0.10;;;;;;;;;;5058063;28;20043;-84
2022/09/12 03:23:13;;;;;;;0.20;0.10;;;;;;;;;;5042000;28;20089;-85
2022/09/12 03:26:03;;;;;;;0.20;0.10;;;;;;;;;;5062712;28;20223;-85
2022/09/12 03:28:39;;;;;;;0.20;0.10;;;;;;;;;;5054924;28;21068;-86
2022/09/12 03:31:21;;;;;;;0.20;0.10;;;;;;;;;;5039425;28;20076;-85
2022/09/12 03:34:11;;;;;;;0.30;0.30;;;;;;;;;;5041672;28;20047;-85
2022/09/12 03:36:58;;;;;;;0.20;0.10;;;;;;;;;;5036914;28;20047;-85
2022/09/12 03:39:33;;;;;;;0.20;0.10;;;;;;;;;;5036725;28;20051;-85
2022/09/12 03:42:22;;;;;;;0.20;0.10;;;;;;;;;;5076156;28;20047;-85
2022/09/12 03:44:48;;;;;;;0.20;0.10;;;;;;;;;;5053742;28;20082;-85
2022/09/12 03:47:23;;;;;;;0.20;0.20;;;;;;;;;;5058346;28;20093;-84
2022/09/12 03:50:01;;;;;;;0.20;0.10;;;;;;;;;;5075838;28;20448;-86
2022/09/12 03:52:27;;;;;;;0.20;0.10;;;;;;;;;;5058247;28;20044;-85
2022/09/12 03:55:02;;;;;;;0.25;0.25;;;;;;;;;;5057817;28;20088;-85
2022/09/12 03:57:28;;;;;;;0.20;0.10;;;;;;;;;;5057208;28;20195;-86
2022/09/12 03:59:54;;;;;;;0.20;0.10;;;;;;;;;;5059252;28;20035;-85
2022/09/12 04:02:20;;;;;;;0.20;0.10;;;;;;;;;;5071331;28;20490;-86
2022/09/12 04:04:47;;;;;;;0.20;0.10;;;;;;;;;;5059124;28;20048;-86
2022/09/12 04:07:14;;;;;;;0.20;0.10;;;;;;;;;;5059486;28;20039;-86
2022/09/12 04:09:40;;;;;;;0.20;0.10;;;;;;;;;;5053493;28;20080;-86
2022/09/12 04:12:12;;;;;;;0.20;0.10;;;;;;;;;;5060230;28;20047;-86
2022/09/12 04:14:39;;;;;;;0.20;0.10;;;;;;;;;;5062644;28;20036;-86
2022/09/12 04:17:07;;;;;;;0.30;0.20;;;;;;;;;;5060251;28;20039;-86
2022/09/12 04:19:33;;;;;;;0.20;0.17;;;;;;;;;;5072885;28;20048;-86
2022/09/12 04:21:59;;;;;;;0.20;0.10;;;;;;;;;;5059851;28;20027;-86
2022/09/12 04:24:33;;;;;;;0.20;0.10;;;;;;;;;;5060921;28;20398;-85
2022/09/12 04:26:59;;;;;;;0.20;0.10;;;;;;;;;;5073239;28;20062;-85
2022/09/12 04:29:26;;;;;;;0.28;0.20;;;;;;;;;;5080226;28;20097;-84
2022/09/12 04:31:55;;;;;;;0.20;0.10;;;;;;;;;;5056216;28;20747;-86
2022/09/12 04:34:26;;;;;;;0.20;0.10;;;;;;;;;;5070257;28;20057;-86
2022/09/12 04:37:10;;;;;;;0.30;0.20;;;;;;;;;;5065344;28;20044;-85
2022/09/12 04:39:47;;;;;;;0.20;0.10;;;;;;;;;;5057159;28;20040;-86
2022/09/12 04:42:22;;;;;;;0.20;0.10;;;;;;;;;;5087735;28;20401;-86
2022/09/12 04:44:54;;;;;;;0.20;0.13;;;;;;;;;;5062156;28;20039;-86
2022/09/12 04:47:20;;;;;;;0.20;0.10;;;;;;;;;;5057319;28;20047;-86
2022/09/12 04:49:49;;;;;;;0.20;0.00;;;;;;;;;;5057333;28;20224;-86
2022/09/12 04:52:16;;;;;;;0.20;0.10;;;;;;;;;;5074603;28;20039;-84
2022/09/12 04:54:44;;;;;;;0.22;0.15;;;;;;;;;;5078786;28;20136;-86
2022/09/12 04:57:13;;;;;;;0.20;0.10;;;;;;;;;;5055092;28;20061;-86
2022/09/12 04:59:39;;;;;;;0.20;0.10;;;;;;;;;;5053655;28;20047;-85
2022/09/12 05:02:19;;;;;;;0.20;0.10;;;;;;;;;;5053412;28;20136;-86
2022/09/12 05:04:51;;;;;;;2.15;0.20;;;;;;;;;;5071970;28;20122;-86
2022/09/12 05:11:23;;;;;;;0.20;0.10;;;;;;;;;;5090583;28;20054;-84
2022/09/12 05:14:02;;;;;;;0.20;0.10;;;;;;;;;;5036578;28;20730;-86
2022/09/12 05:17:20;;;;;;;;;;;;;;;;;;;;;
2022/09/12 05:19:59;;;;;;;0.20;0.10;;;;;;;;;;5086559;28;20126;-85
2022/09/12 05:22:28;;;;;;;0.20;0.10;;;;;;;;;;5074005;28;20591;-86
2022/09/12 05:25:44;;;;;;;0.20;0.10;;;;;;;;;;5068521;28;20157;-85
2022/09/12 05:28:18;;;;;;;0.20;0.10;;;;;;;;;;5083052;28;20440;-87
2022/09/12 05:33:58;;;;;;;0.20;0.10;;;;;;;;;;5075246;28;20035;-86
2022/09/12 05:39:29;;;;;;;0.20;0.10;;;;;;;;;;5078378;28;20514;-86
2022/09/12 05:41:55;;;;;;;0.20;0.10;;;;;;;;;;5081064;28;20039;-86
2022/09/12 05:44:24;;;;;;;0.20;0.10;;;;;;;;;;5078190;28;20035;-86
2022/09/12 05:46:52;;;;;;;0.20;0.10;;;;;;;;;;5064988;28;20057;-86
2022/09/12 05:49:23;;;;;;;0.20;0.10;;;;;;;;;;5063119;27;20127;-86
2022/09/12 05:51:52;;;;;;;0.20;0.10;;;;;;;;;;5057305;28;20054;-86
2022/09/12 05:54:20;;;;;;;0.20;0.20;;;;;;;;;;5055660;28;20055;-85
2022/09/12 05:56:48;;;;;;;0.20;0.10;;;;;;;;;;5056173;28;20071;-85
2022/09/12 05:59:24;;;;;;;0.20;0.20;;;;;;;;;;5072431;28;20577;-85
2022/09/12 06:01:55;;;;;;;0.20;0.10;;;;;;;;;;5058194;28;20400;-85
2022/09/12 06:04:27;;;;;;;0.20;0.10;;;;;;;;;;5069033;28;20052;-85
2022/09/12 06:10:34;;;;;;;0.20;0.10;;;;;;;;;;5041556;27;20051;-85
2022/09/12 06:13:00;;;;;;;0.20;0.10;;;;;;;;;;5079030;28;20035;-85
2022/09/12 06:15:32;;;;;;;0.20;0.10;;;;;;;;;;5096222;27;20043;-85
2022/09/12 06:18:02;;;;;;;0.20;0.10;;;;;;;;;;5075978;28;20032;-86
2022/09/12 06:20:28;;;;;;;0.20;0.10;;;;;;;;;;5087857;27;20049;-86
2022/09/12 06:22:54;;;;;;;0.20;0.10;;;;;;;;;;5069119;28;20050;-85
2022/09/12 06:25:26;;;;;;;3.75;0.45;;;;;;;;;;5079191;28;20044;-86
2022/09/12 06:27:58;;;;;;;0.20;0.10;;;;;;;;;;5094539;27;20054;-86
2022/09/12 06:30:37;;;;;;;0.20;0.10;;;;;;;;;;5079955;28;20078;-86
2022/09/12 06:33:03;;;;;;;0.22;0.22;;;;;;;;;;5071978;22;20446;-86
2022/09/12 06:35:29;;;;;;;0.20;0.10;;;;;;;;;;5066228;28;20089;-83
2022/09/12 06:37:55;;;;;;;0.20;0.10;;;;;;;;;;5057324;28;20599;-85
2022/09/12 06:40:23;;;;;;;0.30;0.20;;;;;;;;;;5038560;28;20051;-84
2022/09/12 06:42:49;;;;;;;0.20;0.10;;;;;;;;;;5088734;28;20113;-85
2022/09/12 06:45:19;;;;;;;0.20;0.10;;;;;;;;;;5056180;28;20044;-85
2022/09/12 06:47:48;;;;;;;0.20;0.10;;;;;;;;;;5070952;28;20047;-84
2022/09/12 06:50:20;;;;;;;0.20;0.10;;;;;;;;;;5054662;28;20118;-85
2022/09/12 06:52:50;;;;;;;0.20;0.10;;;;;;;;;;5050877;28;20080;-84
2022/09/12 06:55:17;;;;;;;0.20;0.10;;;;;;;;;;5069178;28;20036;-84
2022/09/12 06:57:43;;;;;;;0.20;0.10;;;;;;;;;;5061512;28;20423;-84
2022/09/12 07:00:09;;;;;;;0.20;0.10;;;;;;;;;;5073427;28;20036;-84
2022/09/12 07:02:35;;;;;;;0.20;0.10;;;;;;;;;;5061218;28;20451;-85
2022/09/12 07:05:02;;;;;;;0.20;0.10;;;;;;;;;;5046376;28;20108;-85
2022/09/12 07:07:30;;;;;;;0.20;0.10;;;;;;;;;;5063162;28;20379;-84
2022/09/12 07:09:57;;;;;;;0.55;0.20;;;;;;;;;;5044090;28;20214;-84
2022/09/12 07:12:27;;;;;;;0.20;0.10;;;;;;;;;;5072328;28;20048;-85
2022/09/12 07:14:54;;;;;;;0.20;0.10;;;;;;;;;;5060980;28;20040;-86
2022/09/12 07:17:22;;;;;;;0.20;0.17;;;;;;;;;;5055882;28;20086;-87
2022/09/12 07:19:51;;;;;;;0.20;0.10;;;;;;;;;;5048324;28;20050;-87
2022/09/12 07:22:20;;;;;;;0.20;0.10;;;;;;;;;;5064994;28;20136;-84
2022/09/12 07:24:49;;;;;;;0.20;0.10;;;;;;;;;;5058493;28;20525;-84
2022/09/12 07:27:18;;;;;;;0.30;0.20;;;;;;;;;;5058980;28;20064;-85
2022/09/12 07:29:46;;;;;;;0.22;0.22;;;;;;;;;;5059732;28;20039;-85
2022/09/12 07:32:31;;;;;;;;;;;;;;;;;;;;;
2022/09/12 07:35:34;;;;;;;0.20;0.10;;;;;;;;;;5081032;28;20052;-84
2022/09/12 07:38:07;;;;;;;0.30;0.30;;;;;;;;;;5079091;28;20035;-84
2022/09/12 07:47:39;;;;;;;0.20;0.10;;;;;;;;;;5077970;28;20128;-85
2022/09/12 07:50:47;;;;;;;0.20;0.10;;;;;;;;;;5079507;28;20040;-84
2022/09/12 07:53:37;;;;;;;0.20;0.10;;;;;;;;;;5082932;28;20044;-85
2022/09/12 08:00:02;;;;;;;0.20;0.20;;;;;;;;;;5078359;28;20161;-85
2022/09/12 08:05:36;;;;;;;0.20;0.10;;;;;;;;;;5041954;28;20051;-85
2022/09/12 08:08:18;;;;;;;0.20;0.10;;;;;;;;;;5062684;28;20402;-85
2022/09/12 08:14:04;;;;;;;0.20;0.20;;;;;;;;;;5080655;28;20044;-86
2022/09/12 08:16:36;;;;;;;0.20;0.10;;;;;;;;;;5074519;28;20037;-85
2022/09/12 08:19:21;;;;;;;0.20;0.10;;;;;;;;;;5059861;28;20044;-85
2022/09/12 08:21:48;;;;;;;0.20;0.10;;;;;;;;;;5068384;28;20119;-85
2022/09/12 08:24:42;;;;;;;0.20;0.10;;;;;;;;;;5067766;28;20561;-84
2022/09/12 08:27:11;;;;;;;0.20;0.10;;;;;;;;;;5063490;28;20067;-84
2022/09/12 08:33:14;;;;;;;;;;;;;;;;;;;;;
2022/09/12 08:36:12;;;;;;;0.20;0.10;;;;;;;;;;5064283;28;20473;-85
2022/09/12 08:38:49;;;;;;;0.20;0.10;;;;;;;;;;5061678;28;20140;-86
2022/09/12 08:41:34;;;;;;;0.20;0.10;;;;;;;;;;5084928;28;20122;-85
2022/09/12 08:44:36;;;;;;;;;;;;;;;;;;;;;
2022/09/12 08:47:26;;;;;;;0.20;0.10;;;;;;;;;;5077784;28;20028;-86
2022/09/12 08:50:10;;;;;;;0.20;0.13;;;;;;;;;;5067284;28;20052;-84
2022/09/12 08:52:57;;;;;;;0.20;0.10;;;;;;;;;;5080097;28;20040;-85
2022/09/12 08:55:48;;;;;;;0.20;0.10;;;;;;;;;;5087515;28;20039;-84
2022/09/12 08:58:47;;;;;;;0.20;0.10;;;;;;;;;;5070457;28;20127;-84
2022/09/12 09:01:36;;;;;;;0.20;0.10;;;;;;;;;;5054226;28;20052;-85
2022/09/12 09:04:36;;;;;;;0.20;0.10;;;;;;;;;;5068647;28;20044;-83
2022/09/12 09:07:16;;;;;;;0.20;0.10;;;;;;;;;;5066468;28;20127;-85
2022/09/12 09:09:42;;;;;;;0.20;0.10;;;;;;;;;;5086280;28;20097;-85
2022/09/12 09:12:32;;;;;;;0.20;0.10;;;;;;;;;;5066562;28;20040;-86
2022/09/12 09:15:08;;;;;;;0.20;0.10;;;;;;;;;;5067983;28;20917;-87
2022/09/12 09:17:39;;;;;;;0.22;0.20;;;;;;;;;;5067687;28;20052;-85
2022/09/12 09:20:44;;;;;;;0.20;0.10;;;;;;;;;;5070129;28;20785;-84
2022/09/12 09:23:42;;;;;;;0.20;0.10;;;;;;;;;;5067215;28;20041;-87
2022/09/12 09:26:14;;;;;;;0.20;0.10;;;;;;;;;;5058316;28;20129;-89
2022/09/12 09:28:41;;;;;;;;;;;;;;;;;;5067753;28;20039;-86
2022/09/12 09:31:20;;;;;;;0.20;0.10;;;;;;;;;;5063829;28;19922;-88
2022/09/12 09:33:57;;;;;;;0.20;0.10;;;;;;;;;;5086184;28;20037;-86
2022/09/12 09:36:38;;;;;;;0.20;0.10;;;;;;;;;;5094258;28;20040;-88
2022/09/12 09:39:08;;;;;;;0.20;0.10;;;;;;;;;;5094802;28;20123;-85
2022/09/12 09:41:41;;;;;;;0.20;0.10;;;;;;;;;;5087410;28;20100;-85
2022/09/12 09:44:10;;;;;;;0.20;0.10;;;;;;;;;;5089295;28;20036;-85
2022/09/12 09:46:36;;;;;;;0.20;0.10;;;;;;;;;;5074416;28;20028;-87
2022/09/12 09:49:04;;;;;;;0.20;0.10;;;;;;;;;;5084493;28;20044;-86
2022/09/12 09:51:40;;;;;;;0.20;0.10;;;;;;;;;;5089824;28;20051;-86
2022/09/12 09:54:26;;;;;;;0.20;0.10;;;;;;;;;;5072893;28;20043;-84
2022/09/12 09:56:52;;;;;;;0.20;0.10;;;;;;;;;;5097716;28;20100;-86
2022/09/12 09:59:19;;;;;;;0.20;0.10;;;;;;;;;;5070671;28;20032;-85
2022/09/12 10:01:56;;;;;;;0.20;0.10;;;;;;;;;;5060426;28;20133;-87
2022/09/12 10:07:55;;;;;;;0.20;0.10;;;;;;;;;;5034487;28;20338;-86
2022/09/12 10:10:24;;;;;;;0.20;0.10;;;;;;;;;;5060985;28;20048;-89
2022/09/12 10:12:50;;;;;;;0.20;0.10;;;;;;;;;;5074529;28;20407;-87
2022/09/12 10:15:18;;;;;;;0.20;0.10;;;;;;;;;;5058310;28;20095;-87
2022/09/12 10:17:45;;;;;;;0.20;0.00;;;;;;;;;;5060105;28;20024;-89
2022/09/12 10:20:32;;;;;;;0.20;0.10;;;;;;;;;;5077334;28;20407;-86
2022/09/12 10:23:01;;;;;;;0.20;0.10;;;;;;;;;;5073437;28;20383;-88
2022/09/12 10:25:28;;;;;;;0.20;0.20;;;;;;;;;;5072282;28;20667;-86
2022/09/12 10:27:56;;;;;;;0.32;0.32;;;;;;;;;;5070562;28;20521;-87
2022/09/12 10:30:26;;;;;;;0.85;0.20;;;;;;;;;;5072164;28;20389;-87
2022/09/12 10:32:59;;;;;;;0.20;0.10;;;;;;;;;;5046692;28;22464;-86
2022/09/12 10:35:32;;;;;;;0.20;0.10;;;;;;;;;;5059193;28;20131;-86
2022/09/12 10:37:58;;;;;;;0.85;0.82;;;;;;;;;;5057466;28;20458;-87
2022/09/12 10:40:41;;;;;;;0.20;0.10;;;;;;;;;;5075025;28;20527;-87
2022/09/12 10:43:23;;;;;;;0.20;0.10;;;;;;;;;;5063107;28;20107;-86
2022/09/12 10:45:49;;;;;;;0.20;0.10;;;;;;;;;;5075518;28;20069;-84
2022/09/12 10:48:23;;;;;;;0.20;0.10;;;;;;;;;;5055856;28;20395;-86
2022/09/12 10:50:49;;;;;;;0.20;0.10;;;;;;;;;;5058140;28;20097;-87
2022/09/12 10:53:23;;;;;;;0.20;0.10;;;;;;;;;;5057135;28;20040;-86
2022/09/12 10:55:52;;;;;;;0.20;0.10;;;;;;;;;;5061232;28;20048;-87
2022/09/12 10:58:25;;;;;;;0.20;0.10;;;;;;;;;;5056780;28;20115;-88
2022/09/12 11:00:51;;;;;;;;;;;;;;;;;;5061543;28;20033;-88
2022/09/12 11:03:23;;;;;;;0.20;0.10;;;;;;;;;;5068530;28;19990;-86
2022/09/12 11:06:02;;;;;;;0.20;0.10;;;;;;;;;;5083844;28;20410;-89
2022/09/12 11:08:43;;;;;;;0.20;0.10;;;;;;;;;;5077333;28;20155;-87
2022/09/12 11:11:28;;;;;;;0.50;0.20;;;;;;;;;;5066337;28;20052;-87
2022/09/12 11:14:06;;;;;;;0.35;0.22;;;;;;;;;;5080540;28;20035;-87
2022/09/12 11:16:44;;;;;;;0.20;0.10;;;;;;;;;;5080309;28;20078;-87
2022/09/12 11:19:16;;;;;;;0.20;0.10;;;;;;;;;;5093616;28;20557;-87
2022/09/12 11:21:45;;;;;;;0.20;0.10;;;;;;;;;;5059175;28;20452;-88
2022/09/12 11:24:17;;;;;;;0.20;0.10;;;;;;;;;;5069143;28;20068;-89
2022/09/12 11:26:55;;;;;;;0.20;0.10;;;;;;;;;;5075639;28;20370;-86
2022/09/12 11:29:40;;;;;;;0.20;0.10;;;;;;;;;;5062220;28;20128;-87
2022/09/12 11:32:18;;;;;;;0.20;0.10;;;;;;;;;;5099367;28;20039;-85
2022/09/12 11:34:52;;;;;;;0.20;0.10;;;;;;;;;;5068770;28;20126;-88
2022/09/12 11:37:20;;;;;;;0.20;0.13;;;;;;;;;;5060791;28;20036;-87
2022/09/12 11:39:49;;;;;;;0.20;0.10;;;;;;;;;;5072377;28;20036;-86
2022/09/12 11:42:18;;;;;;;0.20;0.10;;;;;;;;;;5064094;28;20028;-88
2022/09/12 11:44:54;;;;;;;0.20;0.20;;;;;;;;;;5065841;28;20127;-88
2022/09/12 11:47:25;;;;;;;0.20;0.10;;;;;;;;;;5061375;28;20056;-90
2022/09/12 11:49:59;;;;;;;0.50;0.50;;;;;;;;;;5048972;28;20096;-88
2022/09/12 11:52:28;;;;;;;0.20;0.13;;;;;;;;;;5078016;28;20093;-88
2022/09/12 11:55:13;;;;;;;0.20;0.10;;;;;;;;;;5058854;28;20068;-89
2022/09/12 11:57:39;;;;;;;0.20;0.10;;;;;;;;;;5082492;28;20028;-87
2022/09/12 12:00:18;;;;;;;0.20;0.10;;;;;;;;;;5063723;28;20050;-87
2022/09/12 12:02:59;;;;;;;0.30;0.30;;;;;;;;;;5065821;28;20093;-88
2022/09/12 12:05:53;;;;;;;0.20;0.10;;;;;;;;;;5063003;28;20036;-89
2022/09/12 12:08:24;;;;;;;0.25;0.15;;;;;;;;;;5082356;28;20110;-87
2022/09/12 12:11:00;;;;;;;0.43;0.22;;;;;;;;;;5068072;28;20703;-87
2022/09/12 12:13:39;;;;;;;0.20;0.10;;;;;;;;;;5079926;28;20089;-85
2022/09/12 12:16:07;;;;;;;0.20;0.10;;;;;;;;;;5075648;28;20056;-88
2022/09/12 12:18:35;;;;;;;0.20;0.10;;;;;;;;;;5078804;28;20033;-88
2022/09/12 12:21:34;;;;;;;0.20;0.10;;;;;;;;;;5066028;28;20051;-88
2022/09/12 12:24:28;;;;;;;0.20;0.10;;;;;;;;;;5055450;28;20050;-89
2022/09/12 12:27:26;;;;;;;0.30;0.30;;;;;;;;;;5078348;28;20039;-89
2022/09/12 12:29:52;;;;;;;1.27;0.20;;;;;;;;;;5056481;28;20044;-89
2022/09/12 12:32:22;;;;;;;0.20;0.10;;;;;;;;;;5073882;22;20052;-85
2022/09/12 12:34:48;;;;;;;0.20;0.10;;;;;;;;;;5044468;28;20541;-85
2022/09/12 12:37:28;;;;;;;0.20;0.10;;;;;;;;;;5044717;28;20089;-84
2022/09/12 12:39:59;;;;;;;0.20;0.10;;;;;;;;;;5057801;28;20056;-85
2022/09/12 12:42:32;;;;;;;0.20;0.10;;;;;;;;;;5049677;28;20069;-86
2022/09/12 12:44:58;;;;;;;;;;;;;;;;;;5025520;28;20041;-87
2022/09/12 12:47:24;;;;;;;0.20;0.20;;;;;;;;;;5039040;28;19970;-87
2022/09/12 12:49:52;;;;;;;0.25;0.20;;;;;;;;;;5041713;28;20052;-85
2022/09/12 12:52:18;;;;;;;0.20;0.10;;;;;;;;;;5041339;28;20262;-83
2022/09/12 12:54:44;;;;;;;0.20;0.10;;;;;;;;;;5047604;28;20376;-86
2022/09/12 12:57:19;;;;;;;0.20;0.20;;;;;;;;;;5041984;28;20120;-87
2022/09/12 12:59:56;;;;;;;0.20;0.13;;;;;;;;;;5062800;28;20633;-84
2022/09/12 13:02:25;;;;;;;0.20;0.10;;;;;;;;;;5027528;28;20037;-85
2022/09/12 13:04:54;;;;;;;;;;;;;;;;;;5046471;28;20039;-84
2022/09/12 13:07:27;;;;;;;0.20;0.15;;;;;;;;;;5039100;28;19952;-87
2022/09/12 13:09:54;;;;;;;0.20;0.10;;;;;;;;;;5027972;28;20120;-82
2022/09/12 13:12:28;;;;;;;0.20;0.10;;;;;;;;;;5045923;22;20571;-85
2022/09/12 13:15:03;;;;;;;0.20;0.10;;;;;;;;;;5049378;28;20108;-87
2022/09/12 13:17:58;;;;;;;0.32;0.25;;;;;;;;;;5066164;28;20044;-84
2022/09/12 13:20:52;;;;;;;;;;;;;;;;;;;;;
2022/09/12 13:23:23;;;;;;;0.20;0.10;;;;;;;;;;5062373;28;19920;-85
2022/09/12 13:26:03;;;;;;;0.20;0.15;;;;;;;;;;5066437;28;20040;-85
2022/09/12 13:28:30;;;;;;;0.20;0.10;;;;;;;;;;5060952;22;20053;-87
2022/09/12 13:31:33;;;;;;;0.20;0.20;;;;;;;;;;5045795;28;20033;-90
2022/09/12 13:34:01;;;;;;;0.20;0.10;;;;;;;;;;5046876;28;20128;-87
2022/09/12 13:36:46;;;;;;;0.20;0.10;;;;;;;;;;5050985;28;20097;-88
2022/09/12 13:39:20;;;;;;;0.20;0.10;;;;;;;;;;5030470;28;20037;-88
2022/09/12 13:41:52;;;;;;;0.20;0.10;;;;;;;;;;5062203;28;20041;-88
2022/09/12 13:44:18;;;;;;;;;;;;;;;;;;5031380;28;20048;-86
2022/09/12 13:46:44;;;;;;;0.30;0.25;;;;;;;;;;5049954;28;19916;-91
2022/09/12 13:49:29;;;;;;;0.20;0.15;;;;;;;;;;5030931;28;20668;-89
2022/09/12 13:52:13;;;;;;;0.75;0.75;;;;;;;;;;5030682;28;20063;-85
2022/09/12 13:54:44;;;;;;;0.20;0.10;;;;;;;;;;5047578;28;20033;-88
2022/09/12 13:57:26;;;;;;;0.20;0.10;;;;;;;;;;5031410;28;20041;-88
2022/09/12 13:59:54;;;;;;;0.90;0.20;;;;;;;;;;5029680;28;20109;-85
2022/09/12 14:02:30;;;;;;;0.20;0.10;;;;;;;;;;5046659;28;20102;-89
2022/09/12 14:05:09;;;;;;;0.30;0.30;;;;;;;;;;5063214;28;20172;-86
2022/09/12 14:07:40;;;;;;;0.28;0.10;;;;;;;;;;5049160;28;20136;-91
2022/09/12 14:10:06;;;;;;;0.20;0.10;;;;;;;;;;5051376;28;20403;-84
2022/09/12 14:12:49;;;;;;;0.20;0.10;;;;;;;;;;5027897;28;20044;-90
2022/09/12 14:15:24;;;;;;;0.20;0.10;;;;;;;;;;5030531;28;20725;-90
2022/09/12 14:18:00;;;;;;;0.20;0.10;;;;;;;;;;5027434;28;20048;-87
2022/09/12 14:20:30;;;;;;;0.20;0.10;;;;;;;;;;5043033;28;20045;-86
2022/09/12 14:22:59;;;;;;;0.20;0.10;;;;;;;;;;5010481;28;20807;-84
2022/09/12 14:25:28;;;;;;;0.20;0.13;;;;;;;;;;5028077;28;20041;-87
2022/09/12 14:27:57;;;;;;;0.20;0.10;;;;;;;;;;5026825;28;20090;-87
2022/09/12 14:30:35;;;;;;;0.20;0.10;;;;;;;;;;5042873;28;20441;-86
2022/09/12 14:33:04;;;;;;;0.20;0.10;;;;;;;;;;5045630;28;20492;-88
2022/09/12 14:35:31;;;;;;;0.20;0.10;;;;;;;;;;5044221;28;20104;-87
2022/09/12 14:38:10;;;;;;;0.20;0.17;;;;;;;;;;5025250;28;20044;-86
2022/09/12 14:40:47;;;;;;;0.20;0.10;;;;;;;;;;5018080;28;20041;-89
2022/09/12 14:43:33;;;;;;;0.20;0.10;;;;;;;;;;5017440;28;20406;-89
2022/09/12 14:46:04;;;;;;;0.20;0.10;;;;;;;;;;5012689;28;20041;-88
2022/09/12 14:49:09;;;;;;;0.20;0.10;;;;;;;;;;5019379;28;20049;-91
2022/09/12 14:51:50;;;;;;;0.20;0.13;;;;;;;;;;5002756;28;20049;-88
2022/09/12 14:54:32;;;;;;;0.20;0.10;;;;;;;;;;4984266;28;20132;-88
2022/09/12 14:57:07;;;;;;;0.20;0.10;;;;;;;;;;5006850;28;20057;-87
2022/09/12 14:59:34;;;;;;;0.20;0.10;;;;;;;;;;5025574;28;20063;-87
2022/09/12 15:02:21;;;;;;;0.20;0.17;;;;;;;;;;5045744;28;20032;-87
2022/09/12 15:04:49;;;;;;;0.20;0.20;;;;;;;;;;5022053;28;20048;-86
2022/09/12 15:07:36;;;;;;;0.20;0.10;;;;;;;;;;5036854;22;20045;-87
2022/09/12 15:10:05;;;;;;;0.20;0.10;;;;;;;;;;5022473;28;20128;-89
2022/09/12 15:12:49;;;;;;;0.20;0.10;;;;;;;;;;5020060;28;20131;-91
2022/09/12 15:15:19;;;;;;;0.20;0.10;;;;;;;;;;5035496;28;20045;-88
2022/09/12 15:17:57;;;;;;;0.20;0.10;;;;;;;;;;5005618;28;20033;-89
2022/09/12 15:22:54;;;;;;;0.20;0.10;;;;;;;;;;5033372;28;20075;-86
2022/09/12 15:25:23;;;;;;;0.20;0.10;;;;;;;;;;4995031;28;20047;-86
2022/09/12 15:27:54;;;;;;;0.20;0.10;;;;;;;;;;4999282;28;20710;-87
2022/09/12 15:30:21;;;;;;;0.20;0.10;;;;;;;;;;4991284;28;20041;-85
2022/09/12 15:32:47;;;;;;;0.20;0.10;;;;;;;;;;4994871;28;20048;-87
2022/09/12 15:35:24;;;;;;;0.20;0.10;;;;;;;;;;5005578;28;20039;-87
2022/09/12 15:38:02;;;;;;;0.20;0.10;;;;;;;;;;4993727;28;20045;-88
2022/09/12 15:40:43;;;;;;;0.20;0.10;;;;;;;;;;5030813;28;20067;-86
2022/09/12 15:43:40;;;;;;;0.20;0.10;;;;;;;;;;4991113;28;20029;-87
2022/09/12 15:46:09;;;;;;;0.20;0.10;;;;;;;;;;5012946;28;20044;-85
2022/09/12 15:48:35;;;;;;;0.20;0.10;;;;;;;;;;5017306;28;20041;-85
2022/09/12 15:51:05;;;;;;;0.20;0.10;;;;;;;;;;4997746;28;20110;-86
2022/09/12 15:53:31;;;;;;;0.20;0.10;;;;;;;;;;5005973;28;20469;-86
2022/09/12 15:56:00;;;;;;;0.20;0.10;;;;;;;;;;5030397;28;20930;-87
2022/09/12 15:58:29;;;;;;;0.20;0.10;;;;;;;;;;4980273;28;20499;-87
2022/09/12 16:03:57;;;;;;;0.20;0.17;;;;;;;;;;5000134;28;20053;-87
2022/09/12 16:06:33;;;;;;;0.20;0.10;;;;;;;;;;4998675;28;20060;-87
2022/09/12 16:09:02;;;;;;;0.20;0.10;;;;;;;;;;5016968;28;20536;-86
2022/09/12 16:14:22;;;;;;;0.20;0.10;;;;;;;;;;4997936;28;20318;-87
2022/09/12 16:17:05;;;;;;;0.20;0.10;;;;;;;;;;5011797;28;20650;-86
2022/09/12 16:19:53;;;;;;;0.20;0.10;;;;;;;;;;4995501;28;20041;-88
2022/09/12 16:22:20;;;;;;;0.20;0.10;;;;;;;;;;4989621;28;20728;-84
2022/09/12 16:25:01;;;;;;;0.20;0.10;;;;;;;;;;4988507;28;20045;-85
2022/09/12 16:27:45;;;;;;;0.20;0.10;;;;;;;;;;5012519;28;20049;-87
2022/09/12 16:30:17;;;;;;;0.20;0.10;;;;;;;;;;5015666;28;20040;-86